Terminal Aerodrome Forecast
Issued by NWS

Home | Current Version | Previous Version | Text Only | Print | Product List | Glossary On
Versions: 1 2 3 4 5 6 7 8 9 10 11 12 13 14 15 16 17 18 19 20 21 22 23 24 25 26 27 28
307
FTUS42 KCAE 201732
TAFCUB
TAF
KCUB 201732Z 2018/2118 10006KT P6SM VCSH SCT050
     FM202100 10005KT P6SM SCT080
     FM210300 00000KT P6SM FEW250
     FM211400 VRB03KT P6SM FEW050 SCT250=

USA.gov is the U.S. government's official web portal to all federal, state and local government web resources and services.